Řízení letového provozu České republiky
Letiste: LKMT Aktualizace: 27.02.2017 11:06:08  UTC
 METAR LKMT 27.02. 11:00 ...
METAR LKMT 271100Z 24015KT CAVOK 12/M01 Q1012 NOSIG RMK REG QNH 1004=
 TAF LKMT 27.02. 05:00 ...
TAF LKMT 270500Z 2706/2812 23008KT CAVOK      BECMG 2708/2710 21014KT      TEMPO 2711/2812 21018G32KT=